»·PEaware :: N535EG KBFL-KMHV

N535EG :: KBFL-KMHV

FLIGHT INFORMATION

Flight Status: Arrived
Operator: Privately registered:
United States
More flights under this callsign
Pilot: Anonymous 17686 (17686)
Aircraft: CESSNA 182 SKYLANE
(C182)
More flights by this aircraft type
Origin: KBFL Meadows
United States
Destination: KMHV Mojave
United States
More flights between these airports :: More routes between these airports
Route:
File this flight plan on PilotEdge
Remarks:
Altitude:
(Current/Filed)
7,500ft
Speed:
(Current/Filed)
120kts
Departed: 28-Dec-17 09:50 PM
Arrived: 28-Dec-17 10:27 PM
Distance/Time
Traveled:
50nm/0:37
Distance/Time
To Go:
Arrived

Flight Plot

Page will automatically refresh every two minutes.


Map Options




Map Legend


Flown Route
Filed Route
Departure Airport
Arrival Airport
Navaid (VOR, NDB)
Fix

Horizontal Profiles

Position Reports

Time Latitude Longitude Heading Altitude Ground
Speed
28-Dec-17 21:41 35.435666 -119.052212 180 510ft 0kts
28-Dec-17 21:42 35.435661 -119.052212 180 510ft 0kts
28-Dec-17 21:43 35.435659 -119.052212 180 510ft 0kts
28-Dec-17 21:44 35.435657 -119.052212 180 510ft 0kts
28-Dec-17 21:45 35.435655 -119.052212 180 510ft 0kts
28-Dec-17 21:46 35.435653 -119.052212 180 510ft 0kts
28-Dec-17 21:47 35.435650 -119.052212 180 510ft 0kts
28-Dec-17 21:48 35.435014 -119.054012 230 510ft 10kts
28-Dec-17 21:49 35.433368 -119.053375 138 510ft 1kts
28-Dec-17 21:50 35.431581 -119.051199 135 510ft 10kts
28-Dec-17 21:51 35.429826 -119.049080 134 510ft 10kts
28-Dec-17 21:52 35.428137 -119.047159 160 510ft 8kts
28-Dec-17 21:53 35.426513 -119.045088 133 510ft 11kts
28-Dec-17 21:54 35.425826 -119.044673 212 510ft 0kts
28-Dec-17 21:55 35.425823 -119.044675 212 510ft 0kts
28-Dec-17 21:56 35.429927 -119.051455 314 590ft 72kts
28-Dec-17 21:57 35.448264 -119.064133 26 1283ft 78kts
28-Dec-17 21:58 35.448196 -119.039552 123 1703ft 83kts
28-Dec-17 21:59 35.435297 -119.015788 117 2198ft 84kts
28-Dec-17 22:00 35.424877 -118.990519 120 2701ft 84kts
28-Dec-17 22:01 35.412386 -118.965777 104 3135ft 90kts
28-Dec-17 22:02 35.398024 -118.940652 133 3578ft 92kts
28-Dec-17 22:03 35.380070 -118.917754 128 3984ft 94kts
28-Dec-17 22:04 35.365194 -118.892708 121 4477ft 83kts
28-Dec-17 22:05 35.355583 -118.871079 126 4370ft 83kts
28-Dec-17 22:06 35.341429 -118.849331 129 4923ft 88kts
28-Dec-17 22:07 35.326464 -118.828173 139 5374ft 94kts
28-Dec-17 22:08 35.311450 -118.802250 118 5955ft 93kts
28-Dec-17 22:09 35.299551 -118.773155 117 6469ft 95kts
28-Dec-17 22:10 35.284771 -118.746593 122 6978ft 95kts
28-Dec-17 22:11 35.272625 -118.717639 116 7444ft 96kts
28-Dec-17 22:12 35.259272 -118.690435 129 7497ft 88kts
28-Dec-17 22:13 35.247925 -118.661590 100 7499ft 104kts
28-Dec-17 22:14 35.243071 -118.626727 99 7500ft 103kts
28-Dec-17 22:15 35.238232 -118.592113 99 7499ft 102kts
28-Dec-17 22:16 35.227182 -118.560670 120 7499ft 100kts
28-Dec-17 22:17 35.217986 -118.528924 107 7313ft 95kts
28-Dec-17 22:18 35.200170 -118.508540 130 6858ft 111kts
28-Dec-17 22:19 35.176669 -118.474619 130 6359ft 140kts
28-Dec-17 22:20 35.151098 -118.437459 130 5864ft 144kts
28-Dec-17 22:21 35.130138 -118.406920 129 5473ft 91kts
28-Dec-17 22:22 35.113588 -118.382843 129 5614ft 93kts
28-Dec-17 22:23 35.096260 -118.357820 130 5660ft 102kts
28-Dec-17 22:24 35.080593 -118.325422 98 5500ft 111kts
28-Dec-17 22:25 35.075815 -118.288663 98 5498ft 108kts
28-Dec-17 22:26 35.070959 -118.252278 101 5329ft 108kts
28-Dec-17 22:27 35.064957 -118.215684 106 4330ft 108kts
28-Dec-17 22:28 35.059476 -118.181830 122 4078ft 106kts
28-Dec-17 22:29 35.040786 -118.156447 136 3772ft 99kts
28-Dec-17 22:30 35.021189 -118.131503 124 3636ft 70kts
28-Dec-17 22:31 35.031758 -118.115265 326 3355ft 91kts
28-Dec-17 22:32 35.046413 -118.132903 315 2824ft 60kts
28-Dec-17 22:33 35.048506 -118.136688 220 2794ft 0kts
28-Dec-17 22:34 35.048978 -118.138331 315 2794ft 9kts
28-Dec-17 22:35 35.051337 -118.141251 317 2794ft 12kts
28-Dec-17 22:36 35.053121 -118.143399 314 2794ft 14kts
28-Dec-17 22:37 35.055933 -118.146768 314 2794ft 13kts
28-Dec-17 22:38 35.057613 -118.149191 278 2794ft 10kts
28-Dec-17 22:39 35.057542 -118.150980 269 2794ft 9kts
28-Dec-17 22:40 35.056912 -118.151238 182 2794ft 0kts
28-Dec-17 22:41 35.056911 -118.151238 182 2794ft 0kts
28-Dec-17 22:42 35.056910 -118.151238 182 2794ft 0kts
28-Dec-17 22:43 35.056909 -118.151238 182 2794ft 0kts
28-Dec-17 22:44 35.056909 -118.151238 182 2794ft 0kts
28-Dec-17 22:45 35.056909 -118.151238 182 2794ft 0kts

Navigation Log

Ident Type
1. KBFL Airport
2. KMHV Airport